createdAt,value
2022-11-25T00:02:27.920Z,5.20
2022-11-25T00:06:33.397Z,5.20
2022-11-25T00:10:36.266Z,5.20
2022-11-25T00:14:39.115Z,5.20
2022-11-25T00:18:44.909Z,5.30
2022-11-25T00:22:49.126Z,5.30
2022-11-25T00:26:52.017Z,5.30
2022-11-25T00:30:54.857Z,5.30
2022-11-25T00:34:57.697Z,5.40
2022-11-25T00:39:02.968Z,5.40
2022-11-25T00:43:23.281Z,5.40
2022-11-25T00:47:26.154Z,5.40
2022-11-25T00:51:29.014Z,5.40
2022-11-25T00:55:53.874Z,5.40
2022-11-25T00:59:56.700Z,5.40
2022-11-25T01:03:59.586Z,5.40
2022-11-25T01:08:02.438Z,5.40
2022-11-25T01:12:06.935Z,5.40
2022-11-25T01:16:10.628Z,5.50
2022-11-25T01:20:13.862Z,5.50
2022-11-25T01:24:17.529Z,5.50
2022-11-25T01:28:21.756Z,5.60
2022-11-25T01:32:24.698Z,5.60
2022-11-25T01:36:27.933Z,5.70
2022-11-25T01:40:30.790Z,5.70
2022-11-25T01:44:37.050Z,5.70
2022-11-25T01:48:42.102Z,5.70
2022-11-25T01:52:46.726Z,5.70
2022-11-25T01:56:51.342Z,5.70
2022-11-25T02:00:55.764Z,5.70
2022-11-25T02:04:59.148Z,5.70
2022-11-25T02:09:04.449Z,5.70
2022-11-25T02:13:07.469Z,5.60
2022-11-25T02:17:19.161Z,5.60
2022-11-25T02:21:27.591Z,5.60
2022-11-25T02:25:32.802Z,5.60
2022-11-25T02:29:36.166Z,5.60
2022-11-25T02:33:39.168Z,5.70
2022-11-25T02:37:42.066Z,5.70
2022-11-25T02:41:49.015Z,5.70
2022-11-25T02:45:54.071Z,5.70
2022-11-25T02:49:57.085Z,5.70
2022-11-25T02:54:00.074Z,5.80
2022-11-25T02:58:04.390Z,5.80
2022-11-25T03:02:07.357Z,5.80
2022-11-25T03:06:11.558Z,5.90
2022-11-25T03:10:14.546Z,5.90
2022-11-25T03:14:18.768Z,5.90
2022-11-25T03:18:21.625Z,6.00
2022-11-25T03:22:24.598Z,6.00
2022-11-25T03:26:27.460Z,6.00
2022-11-25T03:30:32.067Z,6.00
2022-11-25T03:34:35.193Z,6.10
2022-11-25T03:38:38.261Z,6.00
2022-11-25T03:42:41.624Z,6.10
2022-11-25T03:46:45.859Z,6.10
2022-11-25T03:50:50.746Z,6.10
2022-11-25T03:54:53.650Z,6.10
2022-11-25T03:58:56.514Z,6.10
2022-11-25T04:03:00.734Z,6.20
2022-11-25T04:07:03.595Z,6.20
2022-11-25T04:11:06.552Z,6.20
2022-11-25T04:15:09.831Z,6.30
2022-11-25T04:19:14.223Z,6.30
2022-11-25T04:23:17.086Z,6.30
2022-11-25T04:27:20.540Z,6.30
2022-11-25T04:31:23.546Z,6.40
2022-11-25T04:35:27.823Z,6.40
2022-11-25T04:39:36.544Z,6.40
2022-11-25T04:43:39.446Z,6.50
2022-11-25T04:47:43.900Z,6.50
2022-11-25T04:51:48.138Z,6.50
2022-11-25T04:55:50.994Z,6.60
2022-11-25T05:00:14.193Z,6.60
2022-11-25T05:04:17.072Z,6.60
2022-11-25T05:08:21.306Z,6.60
2022-11-25T05:12:25.243Z,6.70
2022-11-25T05:16:28.082Z,6.70
2022-11-25T05:20:31.050Z,6.70
2022-11-25T05:24:35.447Z,6.80
2022-11-25T05:28:38.490Z,6.80
2022-11-25T05:32:41.660Z,6.80
2022-11-25T05:36:48.533Z,6.90
2022-11-25T05:40:52.971Z,6.90
2022-11-25T05:44:55.859Z,7.00
2022-11-25T05:48:59.079Z,7.00
2022-11-25T05:53:01.961Z,7.10
2022-11-25T05:57:06.627Z,7.10
2022-11-25T06:01:10.285Z,7.20
2022-11-25T06:05:13.144Z,7.20
2022-11-25T06:09:20.486Z,7.20
2022-11-25T06:13:24.740Z,7.20
2022-11-25T06:17:27.645Z,7.30
2022-11-25T06:21:30.483Z,7.30
2022-11-25T06:25:33.370Z,7.30
2022-11-25T06:29:37.586Z,7.40
2022-11-25T06:33:40.784Z,7.30
2022-11-25T06:37:44.693Z,7.40
2022-11-25T06:41:47.650Z,7.40
2022-11-25T06:45:51.935Z,7.40
2022-11-25T06:49:54.835Z,7.40
2022-11-25T06:53:57.772Z,7.40
2022-11-25T06:58:20.630Z,7.40
2022-11-25T07:02:26.098Z,7.50
2022-11-25T07:06:28.997Z,7.40
2022-11-25T07:10:31.855Z,7.40
2022-11-25T07:14:35.080Z,7.40
2022-11-25T07:18:40.237Z,7.50
2022-11-25T07:22:43.116Z,7.50
2022-11-25T07:26:46.244Z,7.50
2022-11-25T07:35:13.379Z,7.50
2022-11-25T07:39:19.363Z,7.50
2022-11-25T07:43:22.562Z,7.50
2022-11-25T07:47:25.420Z,7.60
2022-11-25T07:51:30.547Z,7.60
2022-11-25T07:55:38.550Z,7.60
2022-11-25T07:59:41.875Z,7.60
2022-11-25T08:03:45.004Z,7.70
2022-11-25T08:07:49.306Z,7.70
2022-11-25T08:11:53.484Z,7.80
2022-11-25T08:15:56.401Z,7.80
2022-11-25T08:19:59.266Z,7.80
2022-11-25T08:24:04.119Z,7.80
2022-11-25T08:28:08.762Z,7.90
2022-11-25T08:32:12.108Z,7.90
2022-11-25T08:36:15.621Z,7.90
2022-11-25T08:40:20.010Z,8.00
2022-11-25T08:44:22.950Z,8.00
2022-11-25T08:48:25.821Z,8.00
2022-11-25T08:52:29.490Z,8.10
2022-11-25T08:56:36.469Z,8.10
2022-11-25T09:00:41.358Z,8.20
2022-11-25T09:04:44.438Z,8.20
2022-11-25T09:08:56.559Z,8.20
2022-11-25T09:13:00.040Z,8.30
2022-11-25T09:17:08.860Z,8.30
2022-11-25T09:21:12.700Z,8.30
2022-11-25T09:25:15.661Z,8.40
2022-11-25T09:29:18.614Z,8.50
2022-11-25T09:33:23.624Z,8.50
2022-11-25T09:37:26.484Z,8.60
2022-11-25T09:41:53.793Z,8.70
2022-11-25T09:46:26.718Z,8.70
2022-11-25T09:50:39.492Z,8.80
2022-11-25T09:54:43.683Z,8.80
2022-11-25T09:58:49.255Z,8.90
2022-11-25T10:02:56.281Z,8.90
2022-11-25T10:07:02.545Z,8.90
2022-11-25T10:11:13.194Z,9.00
2022-11-25T10:15:19.004Z,9.00
2022-11-25T10:19:25.603Z,9.00
2022-11-25T10:23:33.299Z,9.10
2022-11-25T10:27:39.622Z,9.10
2022-11-25T10:31:43.594Z,9.10
2022-11-25T10:35:48.283Z,9.10
2022-11-25T10:40:03.970Z,9.20
2022-11-25T10:44:11.068Z,9.20
2022-11-25T10:48:19.694Z,9.20
2022-11-25T10:52:24.210Z,9.20
2022-11-25T10:56:28.834Z,9.20
2022-11-25T11:00:33.336Z,9.30
2022-11-25T11:04:37.043Z,9.30
2022-11-25T11:08:43.538Z,9.30
2022-11-25T11:12:58.746Z,9.30
2022-11-25T11:17:01.615Z,9.40
2022-11-25T11:21:06.096Z,9.40
2022-11-25T11:25:09.689Z,9.50
2022-11-25T11:29:16.845Z,9.70
2022-11-25T11:33:30.390Z,9.80
2022-11-25T11:37:44.281Z,9.90
2022-11-25T11:41:49.604Z,10.00
2022-11-25T11:46:02.872Z,10.00
2022-11-25T11:50:18.078Z,10.10
2022-11-25T11:54:27.376Z,10.20
2022-11-25T11:58:43.058Z,10.30
2022-11-25T12:02:55.452Z,10.30
2022-11-25T12:07:07.359Z,10.40
2022-11-25T12:11:12.119Z,10.40
2022-11-25T12:15:18.797Z,10.40
2022-11-25T12:19:25.133Z,10.50
2022-11-25T12:23:36.144Z,10.50
2022-11-25T12:27:40.691Z,10.60
2022-11-25T12:31:46.601Z,10.60
2022-11-25T12:35:55.374Z,10.70
2022-11-25T12:40:00.692Z,10.70
2022-11-25T12:44:07.397Z,10.70
2022-11-25T12:48:11.259Z,10.80
2022-11-25T12:52:36.407Z,10.90
2022-11-25T12:56:46.305Z,11.00
2022-11-25T13:01:01.961Z,11.00
2022-11-25T13:05:40.249Z,11.10
2022-11-25T13:09:54.201Z,11.10
2022-11-25T13:14:01.141Z,11.10
2022-11-25T13:18:09.435Z,11.10
2022-11-25T13:22:27.234Z,11.20
2022-11-25T13:26:48.680Z,11.20
2022-11-25T13:30:53.481Z,11.30
2022-11-25T13:35:13.366Z,11.30
2022-11-25T13:39:17.652Z,11.30
2022-11-25T13:43:23.469Z,11.30
2022-11-25T13:47:32.111Z,11.30
2022-11-25T13:51:49.549Z,11.30
2022-11-25T13:55:55.049Z,11.30
2022-11-25T14:00:01.199Z,11.30
2022-11-25T14:04:14.143Z,11.30
2022-11-25T14:08:21.352Z,11.20
2022-11-25T14:12:32.957Z,11.20
2022-11-25T14:16:51.188Z,11.20
2022-11-25T14:20:58.542Z,11.20
2022-11-25T14:25:05.959Z,11.10
2022-11-25T14:29:18.505Z,11.10
2022-11-25T14:33:26.585Z,11.00
2022-11-25T14:37:33.968Z,11.00
2022-11-25T14:41:37.797Z,10.90
2022-11-25T14:45:40.694Z,10.90
2022-11-25T14:50:05.277Z,10.80
2022-11-25T14:54:11.684Z,10.70
2022-11-25T14:58:14.568Z,10.70
2022-11-25T15:02:28.219Z,10.60
2022-11-25T15:06:38.305Z,10.50
2022-11-25T15:10:43.604Z,10.40
2022-11-25T15:14:49.574Z,10.40
2022-11-25T15:18:54.074Z,10.30
2022-11-25T15:22:58.341Z,10.20
2022-11-25T15:27:02.605Z,10.20
2022-11-25T15:31:09.688Z,10.10
2022-11-25T15:35:17.438Z,10.00
2022-11-25T15:39:27.396Z,10.00
2022-11-25T15:43:31.730Z,9.90
2022-11-25T15:47:34.796Z,9.90
2022-11-25T15:51:42.552Z,9.90
2022-11-25T15:55:46.793Z,9.90
2022-11-25T15:59:51.514Z,9.80
2022-11-25T16:03:54.402Z,9.80
2022-11-25T16:07:59.269Z,9.80
2022-11-25T16:12:07.665Z,9.80
2022-11-25T16:16:16.390Z,9.80
2022-11-25T16:20:19.791Z,9.80
2022-11-25T16:24:40.345Z,9.80
2022-11-25T16:28:53.296Z,9.80
2022-11-25T16:32:57.295Z,9.80
2022-11-25T16:37:00.181Z,9.90
2022-11-25T16:41:09.500Z,9.90
2022-11-25T16:45:18.616Z,9.90
2022-11-25T16:49:22.542Z,9.90
2022-11-25T16:53:26.488Z,9.90
2022-11-25T16:57:29.366Z,9.90
2022-11-25T17:01:34.275Z,10.00
2022-11-25T17:05:37.205Z,10.00
2022-11-25T17:09:50.294Z,10.00
2022-11-25T17:13:53.703Z,10.00
2022-11-25T17:17:58.072Z,10.00
2022-11-25T17:22:00.989Z,10.00
2022-11-25T17:26:04.191Z,10.00
2022-11-25T17:30:08.194Z,10.00
2022-11-25T17:34:14.308Z,10.00
2022-11-25T17:38:18.773Z,10.00
2022-11-25T17:42:24.678Z,10.00
2022-11-25T17:46:29.619Z,10.00
2022-11-25T17:50:36.139Z,10.00
2022-11-25T17:54:39.521Z,10.00
2022-11-25T17:58:42.799Z,10.00
2022-11-25T18:02:45.998Z,10.00
2022-11-25T18:06:50.651Z,9.90
2022-11-25T18:10:53.507Z,9.90
2022-11-25T18:14:56.994Z,9.90
2022-11-25T18:18:59.875Z,9.90
2022-11-25T18:23:04.357Z,9.90
2022-11-25T18:27:08.163Z,9.90
2022-11-25T18:36:01.826Z,9.90
2022-11-25T18:40:06.811Z,9.90
2022-11-25T18:44:13.970Z,9.90
2022-11-25T18:48:17.612Z,9.90
2022-11-25T18:52:20.531Z,9.90
2022-11-25T18:56:24.960Z,9.90
2022-11-25T19:00:32.785Z,9.90
2022-11-25T19:04:36.738Z,9.90
2022-11-25T19:08:40.274Z,9.90
2022-11-25T19:12:45.597Z,9.90
2022-11-25T19:16:48.557Z,9.90
2022-11-25T19:20:51.469Z,9.80
2022-11-25T19:24:54.333Z,9.80
2022-11-25T19:29:01.447Z,9.80
2022-11-25T19:33:04.322Z,9.70
2022-11-25T19:37:07.166Z,9.70
2022-11-25T19:41:10.101Z,9.60
2022-11-25T19:45:15.868Z,9.50
2022-11-25T19:49:19.918Z,9.50
2022-11-25T19:53:23.145Z,9.40
2022-11-25T19:57:26.387Z,9.40
2022-11-25T20:01:32.560Z,9.30
2022-11-25T20:05:36.481Z,9.20
2022-11-25T20:09:39.416Z,9.20
2022-11-25T20:13:42.362Z,9.10
2022-11-25T20:17:47.866Z,9.10
2022-11-25T20:21:50.745Z,9.10
2022-11-25T20:25:53.621Z,9.00
2022-11-25T20:29:57.089Z,9.00
2022-11-25T20:34:01.321Z,9.00
2022-11-25T20:38:04.230Z,9.00
2022-11-25T20:42:07.501Z,9.00
2022-11-25T20:46:14.649Z,9.00
2022-11-25T20:50:19.620Z,8.90
2022-11-25T20:54:24.011Z,8.90
2022-11-25T20:58:28.060Z,8.90
2022-11-25T21:02:30.954Z,8.80
2022-11-25T21:06:40.822Z,8.80
2022-11-25T21:10:44.018Z,8.80
2022-11-25T21:15:13.350Z,8.80
2022-11-25T21:19:16.431Z,8.80
2022-11-25T21:23:22.306Z,8.70
2022-11-25T21:27:26.554Z,8.70
2022-11-25T21:31:29.453Z,8.70
2022-11-25T21:35:34.255Z,8.60
2022-11-25T21:39:38.546Z,8.60
2022-11-25T21:43:42.759Z,8.60
2022-11-25T21:47:45.634Z,8.60
2022-11-25T21:51:48.532Z,8.60
2022-11-25T21:55:53.116Z,8.50
2022-11-25T21:59:56.017Z,8.50
2022-11-25T22:03:58.924Z,8.50
2022-11-25T22:08:01.962Z,8.50
2022-11-25T22:12:06.847Z,8.50
2022-11-25T22:16:13.813Z,8.50
2022-11-25T22:20:25.562Z,8.40
2022-11-25T22:24:28.452Z,8.40
2022-11-25T22:28:32.934Z,8.40
2022-11-25T22:32:39.774Z,8.30
2022-11-25T22:36:44.672Z,8.30
2022-11-25T22:40:48.653Z,8.30
2022-11-25T22:44:56.354Z,8.30
2022-11-25T22:49:23.762Z,8.30
2022-11-25T22:53:26.789Z,8.20
2022-11-25T22:57:42.718Z,8.20
2022-11-25T23:01:46.970Z,8.20
2022-11-25T23:05:50.092Z,8.20
2022-11-25T23:09:53.039Z,8.20
2022-11-25T23:13:55.949Z,8.20
2022-11-25T23:18:00.793Z,8.20
2022-11-25T23:22:03.658Z,8.20
2022-11-25T23:26:07.491Z,8.20
2022-11-25T23:30:15.357Z,8.10
2022-11-25T23:34:19.559Z,8.10
2022-11-25T23:38:24.542Z,8.10
2022-11-25T23:42:27.404Z,8.10
2022-11-25T23:46:32.946Z,8.10
2022-11-25T23:50:37.172Z,8.10
2022-11-25T23:54:41.230Z,8.00
2022-11-25T23:58:44.062Z,8.00
